createdAt,value
2023-03-04T00:01:31.642Z,84.59
2023-03-04T00:03:59.722Z,84.55
2023-03-04T00:06:28.091Z,84.56
2023-03-04T00:08:56.343Z,84.52
2023-03-04T00:11:25.009Z,84.52
2023-03-04T00:13:53.276Z,84.52
2023-03-04T00:16:21.418Z,84.43
2023-03-04T00:18:49.295Z,84.40
2023-03-04T00:21:17.231Z,84.45
2023-03-04T00:23:45.331Z,84.47
2023-03-04T00:26:13.708Z,84.51
2023-03-04T00:28:43.438Z,84.51
2023-03-04T00:31:12.264Z,84.50
2023-03-04T00:33:40.579Z,84.52
2023-03-04T00:36:08.695Z,84.52
2023-03-04T00:38:36.975Z,84.41
2023-03-04T00:41:05.208Z,84.46
2023-03-04T00:43:33.237Z,84.51
2023-03-04T00:46:01.330Z,84.51
2023-03-04T00:48:31.170Z,84.49
2023-03-04T00:50:59.219Z,84.56
2023-03-04T00:53:27.366Z,84.59
2023-03-04T00:55:55.388Z,84.62
2023-03-04T00:58:23.289Z,84.63
2023-03-04T01:00:51.385Z,84.68
2023-03-04T01:03:19.806Z,84.73
2023-03-04T01:05:47.788Z,84.77
2023-03-04T01:08:15.814Z,84.86
2023-03-04T01:10:44.892Z,84.94
2023-03-04T01:13:13.494Z,85.02
2023-03-04T01:15:41.562Z,85.04
2023-03-04T01:18:10.015Z,85.08
2023-03-04T01:20:38.227Z,85.05
2023-03-04T01:23:06.265Z,85.02
2023-03-04T01:25:34.464Z,84.99
2023-03-04T01:28:02.589Z,85.00
2023-03-04T01:30:30.736Z,84.99
2023-03-04T01:32:58.829Z,84.96
2023-03-04T01:35:26.851Z,84.92
2023-03-04T01:37:54.947Z,84.93
2023-03-04T01:40:22.939Z,85.01
2023-03-04T01:42:51.116Z,85.04
2023-03-04T01:45:20.347Z,85.01
2023-03-04T01:47:50.048Z,85.05
2023-03-04T01:50:23.117Z,85.08
2023-03-04T01:52:51.296Z,85.11
2023-03-04T01:55:21.729Z,85.05
2023-03-04T01:57:51.845Z,85.05
2023-03-04T02:00:27.954Z,85.05
2023-03-04T02:03:24.776Z,85.04
2023-03-04T02:05:53.925Z,85.07
2023-03-04T02:08:24.879Z,85.09
2023-03-04T02:10:54.265Z,85.14
2023-03-04T02:13:23.407Z,85.23
2023-03-04T02:15:53.130Z,85.28
2023-03-04T02:18:23.990Z,85.44
2023-03-04T02:21:19.857Z,85.49
2023-03-04T02:24:06.514Z,85.49
2023-03-04T02:26:39.961Z,85.50
2023-03-04T02:29:10.823Z,85.48
2023-03-04T02:31:43.287Z,85.47
2023-03-04T02:34:17.441Z,85.50
2023-03-04T02:36:46.907Z,85.52
2023-03-04T02:39:22.137Z,85.50
2023-03-04T02:41:54.407Z,85.53
2023-03-04T02:44:29.112Z,85.52
2023-03-04T02:46:59.229Z,85.49
2023-03-04T02:49:29.559Z,85.47
2023-03-04T02:52:01.751Z,85.50
2023-03-04T02:54:30.073Z,85.50
2023-03-04T02:57:01.518Z,85.51
2023-03-04T02:59:30.459Z,85.51
2023-03-04T03:01:58.990Z,85.50
2023-03-04T03:04:27.825Z,85.49
2023-03-04T03:06:56.174Z,85.48
2023-03-04T03:09:24.225Z,85.48
2023-03-04T03:11:52.268Z,85.47
2023-03-04T03:14:21.104Z,85.43
2023-03-04T03:16:49.150Z,85.40
2023-03-04T03:19:17.128Z,85.34
2023-03-04T03:21:45.079Z,85.21
2023-03-04T03:24:13.214Z,85.06
2023-03-04T03:26:45.559Z,85.01
2023-03-04T03:29:13.730Z,84.92
2023-03-04T03:31:41.822Z,84.88
2023-03-04T03:34:09.987Z,84.75
2023-03-04T03:36:38.168Z,84.76
2023-03-04T03:39:06.337Z,84.76
2023-03-04T03:41:34.657Z,84.74
2023-03-04T03:44:02.824Z,84.61
2023-03-04T03:46:30.884Z,84.62
2023-03-04T03:48:58.916Z,84.57
2023-03-04T03:51:26.917Z,84.43
2023-03-04T03:53:54.810Z,84.44
2023-03-04T03:56:22.700Z,84.46
2023-03-04T03:58:50.866Z,84.44
2023-03-04T04:05:24.947Z,84.36
2023-03-04T04:07:54.175Z,84.26
2023-03-04T04:10:22.179Z,84.29
2023-03-04T04:12:50.226Z,84.33
2023-03-04T04:15:19.325Z,84.32
2023-03-04T04:17:47.288Z,84.34
2023-03-04T04:20:15.482Z,84.31
2023-03-04T04:22:43.962Z,84.34
2023-03-04T04:25:11.930Z,84.34
2023-03-04T04:27:39.965Z,84.37
2023-03-04T04:34:34.821Z,84.37
2023-03-04T04:37:02.819Z,84.40
2023-03-04T04:39:30.767Z,84.48
2023-03-04T04:41:58.662Z,84.48
2023-03-04T04:44:27.415Z,84.35
2023-03-04T04:46:55.548Z,84.39
2023-03-04T04:49:23.542Z,84.33
2023-03-04T04:51:51.504Z,84.33
2023-03-04T04:54:19.536Z,84.33
2023-03-04T04:56:47.512Z,84.27
2023-03-04T04:59:15.954Z,84.32
2023-03-04T05:01:44.019Z,84.33
2023-03-04T05:04:11.941Z,84.34
2023-03-04T05:06:40.009Z,84.36
2023-03-04T05:09:07.940Z,84.35
2023-03-04T05:11:36.007Z,84.31
2023-03-04T05:14:03.978Z,84.31
2023-03-04T05:16:32.297Z,84.26
2023-03-04T05:19:00.877Z,84.22
2023-03-04T05:21:28.947Z,84.14
2023-03-04T05:23:56.913Z,84.14
2023-03-04T05:26:24.791Z,84.16
2023-03-04T05:28:53.399Z,84.14
2023-03-04T05:31:21.518Z,84.05
2023-03-04T05:33:49.478Z,84.01
2023-03-04T05:36:17.487Z,84.04
2023-03-04T05:38:45.540Z,83.97
2023-03-04T05:41:13.551Z,83.86
2023-03-04T05:43:42.952Z,83.91
2023-03-04T05:46:15.810Z,83.88
2023-03-04T05:48:44.869Z,83.86
2023-03-04T05:51:12.735Z,83.84
2023-03-04T05:53:41.596Z,83.84
2023-03-04T05:56:11.611Z,83.78
2023-03-04T05:58:40.933Z,83.77
2023-03-04T06:01:09.918Z,83.84
2023-03-04T06:03:38.086Z,83.82
2023-03-04T06:06:06.244Z,83.77
2023-03-04T06:08:35.796Z,83.74
2023-03-04T06:11:05.692Z,83.72
2023-03-04T06:13:34.845Z,83.66
2023-03-04T06:16:02.836Z,83.61
2023-03-04T06:18:30.937Z,83.57
2023-03-04T06:21:00.791Z,83.63
2023-03-04T06:23:30.151Z,83.62
2023-03-04T06:26:00.115Z,83.62
2023-03-04T06:28:28.885Z,83.61
2023-03-04T06:30:57.802Z,83.62
2023-03-04T06:33:26.534Z,83.58
2023-03-04T06:35:56.404Z,83.53
2023-03-04T06:38:25.972Z,83.49
2023-03-04T06:40:57.209Z,83.52
2023-03-04T06:43:25.542Z,83.51
2023-03-04T06:45:53.855Z,83.58
2023-03-04T06:48:21.898Z,83.56
2023-03-04T06:50:49.907Z,83.44
2023-03-04T06:53:17.824Z,83.41
2023-03-04T06:55:46.479Z,83.46
2023-03-04T06:58:14.770Z,83.47
2023-03-04T07:00:42.755Z,83.43
2023-03-04T07:03:13.599Z,83.33
2023-03-04T07:05:42.948Z,83.30
2023-03-04T07:08:10.831Z,83.27
2023-03-04T07:10:39.296Z,83.27
2023-03-04T07:13:07.397Z,83.21
2023-03-04T07:15:36.291Z,83.16
2023-03-04T07:18:04.312Z,83.15
2023-03-04T07:20:32.605Z,83.14
2023-03-04T07:23:00.526Z,83.18
2023-03-04T07:25:28.496Z,83.11
2023-03-04T07:27:56.457Z,83.02
2023-03-04T07:30:24.291Z,82.86
2023-03-04T07:32:52.427Z,82.87
2023-03-04T07:35:20.491Z,82.73
2023-03-04T07:37:48.553Z,82.78
2023-03-04T07:40:16.978Z,82.86
2023-03-04T07:42:49.905Z,82.39
2023-03-04T07:45:18.380Z,82.40
2023-03-04T07:47:46.581Z,82.36
2023-03-04T07:50:17.547Z,82.19
2023-03-04T07:52:48.189Z,81.93
2023-03-04T07:55:17.232Z,82.01
2023-03-04T07:57:48.313Z,81.85
2023-03-04T08:00:17.705Z,81.86
2023-03-04T08:02:45.683Z,81.63
2023-03-04T08:05:14.205Z,81.50
2023-03-04T08:07:42.232Z,81.49
2023-03-04T08:10:10.969Z,81.61
2023-03-04T08:12:40.653Z,81.56
2023-03-04T08:15:09.080Z,81.56
2023-03-04T08:17:38.228Z,81.47
2023-03-04T08:20:06.776Z,81.60
2023-03-04T08:22:34.927Z,81.54
2023-03-04T08:25:03.996Z,81.61
2023-03-04T08:27:31.917Z,81.53
2023-03-04T08:29:59.898Z,81.62
2023-03-04T08:32:28.706Z,81.40
2023-03-04T08:34:57.066Z,81.40
2023-03-04T08:37:25.128Z,81.51
2023-03-04T08:39:53.098Z,81.55
2023-03-04T08:42:21.138Z,81.62
2023-03-04T08:44:49.329Z,81.54
2023-03-04T08:47:17.306Z,81.54
2023-03-04T08:49:45.231Z,81.43
2023-03-04T08:52:13.310Z,81.39
2023-03-04T08:54:41.443Z,81.49
2023-03-04T08:57:09.363Z,81.59
2023-03-04T08:59:38.577Z,81.60
2023-03-04T09:02:07.113Z,81.63
2023-03-04T09:04:35.472Z,81.63
2023-03-04T09:07:04.264Z,81.65
2023-03-04T09:09:32.173Z,81.77
2023-03-04T09:12:00.126Z,81.78
2023-03-04T09:14:28.813Z,81.78
2023-03-04T09:16:56.789Z,81.88
2023-03-04T09:19:24.790Z,81.84
2023-03-04T09:21:52.681Z,81.81
2023-03-04T09:24:20.467Z,81.70
2023-03-04T09:26:52.286Z,81.73
2023-03-04T09:29:21.147Z,81.79
2023-03-04T09:31:49.052Z,81.81
2023-03-04T09:34:16.962Z,81.77
2023-03-04T09:36:44.987Z,81.72
2023-03-04T09:39:12.806Z,81.64
2023-03-04T09:41:44.735Z,81.55
2023-03-04T09:44:43.585Z,81.49
2023-03-04T09:47:14.859Z,81.33
2023-03-04T09:49:45.805Z,81.30
2023-03-04T09:52:58.442Z,81.24
2023-03-04T09:55:33.983Z,81.26
2023-03-04T09:58:17.151Z,80.99
2023-03-04T10:00:52.150Z,80.90
2023-03-04T10:03:24.689Z,80.72
2023-03-04T10:06:06.208Z,80.67
2023-03-04T10:08:42.545Z,80.76
2023-03-04T10:11:24.836Z,79.87
2023-03-04T10:14:11.688Z,79.63
2023-03-04T10:16:51.890Z,79.77
2023-03-04T10:19:46.968Z,79.62
2023-03-04T10:22:21.013Z,79.41
2023-03-04T10:24:49.405Z,79.32
2023-03-04T10:27:19.808Z,78.91
2023-03-04T10:29:49.108Z,78.80
2023-03-04T10:32:19.672Z,78.62
2023-03-04T10:34:47.782Z,78.98
2023-03-04T10:37:15.795Z,78.99
2023-03-04T10:39:45.996Z,78.71
2023-03-04T10:42:13.879Z,78.79
2023-03-04T10:44:44.905Z,78.81
2023-03-04T10:47:14.283Z,78.88
2023-03-04T10:49:54.166Z,78.71
2023-03-04T10:52:32.504Z,78.73
2023-03-04T10:55:29.915Z,78.90
2023-03-04T10:58:04.982Z,79.00
2023-03-04T11:04:36.303Z,78.52
2023-03-04T11:07:10.689Z,78.49
2023-03-04T11:09:40.265Z,78.23
2023-03-04T11:12:17.218Z,78.10
2023-03-04T11:14:50.951Z,78.64
2023-03-04T11:17:25.221Z,78.67
2023-03-04T11:20:21.011Z,78.26
2023-03-04T11:22:51.063Z,78.41
2023-03-04T11:25:27.745Z,78.49
2023-03-04T11:28:00.200Z,78.59
2023-03-04T11:30:42.893Z,79.52
2023-03-04T11:33:17.119Z,80.27
2023-03-04T11:36:04.125Z,80.42
2023-03-04T11:38:39.320Z,80.65
2023-03-04T11:41:19.325Z,80.44
2023-03-04T11:43:47.407Z,80.52
2023-03-04T11:46:46.151Z,80.33
2023-03-04T11:49:32.910Z,80.09
2023-03-04T11:52:29.569Z,80.03
2023-03-04T11:55:28.318Z,80.30
2023-03-04T11:58:04.066Z,80.74
2023-03-04T12:00:38.228Z,80.90
2023-03-04T12:03:39.673Z,81.02
2023-03-04T12:06:30.194Z,81.16
2023-03-04T12:09:18.168Z,81.31
2023-03-04T12:12:25.189Z,81.24
2023-03-04T12:15:15.089Z,81.36
2023-03-04T12:17:57.879Z,81.44
2023-03-04T12:20:42.146Z,81.55
2023-03-04T12:23:28.203Z,81.56
2023-03-04T12:26:06.315Z,81.65
2023-03-04T12:28:54.970Z,81.58
2023-03-04T12:31:42.521Z,81.55
2023-03-04T12:34:22.479Z,81.89
2023-03-04T12:37:13.185Z,81.89
2023-03-04T12:39:58.813Z,82.01
2023-03-04T12:43:01.036Z,82.02
2023-03-04T12:45:28.916Z,82.31
2023-03-04T12:48:24.161Z,82.66
2023-03-04T12:51:09.712Z,83.45
2023-03-04T12:54:06.536Z,84.50
2023-03-04T12:56:44.857Z,85.28
2023-03-04T12:59:18.773Z,85.53
2023-03-04T13:01:56.430Z,85.93
2023-03-04T13:04:29.637Z,86.63
2023-03-04T13:06:57.650Z,87.18
2023-03-04T13:09:31.997Z,87.57
2023-03-04T13:12:16.002Z,87.45
2023-03-04T13:15:08.824Z,87.73
2023-03-04T13:17:44.071Z,87.70
2023-03-04T13:20:23.324Z,87.57
2023-03-04T13:22:59.716Z,87.07
2023-03-04T13:25:27.733Z,86.10
2023-03-04T13:28:11.043Z,85.54
2023-03-04T13:30:39.071Z,85.38
2023-03-04T13:33:16.095Z,85.39
2023-03-04T13:35:47.055Z,85.70
2023-03-04T13:38:21.294Z,86.19
2023-03-04T13:41:07.508Z,86.57
2023-03-04T13:43:46.554Z,86.57
2023-03-04T13:46:20.816Z,86.64
2023-03-04T13:48:52.004Z,86.79
2023-03-04T13:51:49.015Z,86.86
2023-03-04T13:54:29.118Z,86.75
2023-03-04T13:57:00.422Z,86.58
2023-03-04T13:59:50.497Z,86.49
2023-03-04T14:02:22.820Z,86.33
2023-03-04T14:04:53.706Z,85.79
2023-03-04T14:07:32.201Z,85.07
2023-03-04T14:10:11.979Z,84.72
2023-03-04T14:13:06.476Z,84.69
2023-03-04T14:15:35.426Z,84.42
2023-03-04T14:18:05.805Z,84.47
2023-03-04T14:20:36.964Z,84.37
2023-03-04T14:23:36.267Z,84.55
2023-03-04T14:26:15.766Z,84.58
2023-03-04T14:28:52.877Z,84.36
2023-03-04T14:31:24.246Z,84.15
2023-03-04T14:33:59.901Z,84.10
2023-03-04T14:36:35.872Z,83.85
2023-03-04T14:39:06.862Z,83.78
2023-03-04T14:41:39.437Z,83.85
2023-03-04T14:44:11.695Z,83.81
2023-03-04T14:46:56.881Z,83.82
2023-03-04T14:49:35.755Z,83.78
2023-03-04T14:52:05.066Z,83.80
2023-03-04T14:54:38.293Z,83.83
2023-03-04T14:57:26.522Z,83.77
2023-03-04T14:59:54.851Z,83.74
2023-03-04T15:02:33.789Z,83.62
2023-03-04T15:05:16.894Z,83.69
2023-03-04T15:07:51.962Z,83.70
2023-03-04T15:10:24.650Z,83.70
2023-03-04T15:12:55.524Z,83.69
2023-03-04T15:15:33.076Z,83.54
2023-03-04T15:18:26.473Z,83.49
2023-03-04T15:21:00.932Z,83.38
2023-03-04T15:23:31.495Z,83.40
2023-03-04T15:26:02.529Z,83.40
2023-03-04T15:28:36.509Z,82.37
2023-03-04T15:31:05.967Z,79.01
2023-03-04T15:33:34.307Z,78.03
2023-03-04T15:36:03.444Z,76.63
2023-03-04T15:38:31.777Z,73.78
2023-03-04T15:40:59.940Z,73.12
2023-03-04T15:43:28.022Z,71.66
2023-03-04T15:45:56.013Z,68.25
2023-03-04T15:48:24.076Z,66.62
2023-03-04T15:50:58.191Z,65.45
2023-03-04T15:53:32.870Z,64.07
2023-03-04T15:56:02.218Z,60.60
2023-03-04T15:58:34.884Z,59.13
2023-03-04T16:01:03.890Z,58.34
2023-03-04T16:03:32.359Z,57.43
2023-03-04T16:06:00.438Z,55.45
2023-03-04T16:08:29.065Z,55.74
2023-03-04T16:10:57.229Z,56.32
2023-03-04T16:13:25.290Z,57.11
2023-03-04T16:15:53.457Z,57.62
2023-03-04T16:18:21.581Z,59.10
2023-03-04T16:20:51.156Z,59.50
2023-03-04T16:23:23.257Z,58.35
2023-03-04T16:25:53.994Z,57.51
2023-03-04T16:28:22.396Z,57.84
2023-03-04T16:30:50.577Z,57.80
2023-03-04T16:33:18.645Z,58.02
2023-03-04T16:35:47.416Z,59.49
2023-03-04T16:38:33.245Z,59.13
2023-03-04T16:41:02.202Z,58.31
2023-03-04T16:43:30.381Z,58.55
2023-03-04T16:45:58.640Z,58.64
2023-03-04T16:48:26.669Z,58.18
2023-03-04T16:50:57.365Z,58.66
2023-03-04T16:53:28.043Z,58.72
2023-03-04T16:55:58.431Z,58.11
2023-03-04T16:58:26.458Z,57.30
2023-03-04T17:00:55.044Z,58.09
2023-03-04T17:03:23.017Z,58.42
2023-03-04T17:05:51.109Z,57.65
2023-03-04T17:08:18.979Z,57.29
2023-03-04T17:10:48.979Z,55.58
2023-03-04T17:13:16.913Z,56.24
2023-03-04T17:15:46.921Z,54.99
2023-03-04T17:18:14.917Z,55.65
2023-03-04T17:20:42.979Z,55.28
2023-03-04T17:23:11.104Z,55.23
2023-03-04T17:25:39.148Z,54.72
2023-03-04T17:28:07.109Z,53.88
2023-03-04T17:30:35.098Z,55.19
2023-03-04T17:33:03.199Z,54.21
2023-03-04T17:35:31.113Z,53.74
2023-03-04T17:37:59.048Z,54.15
2023-03-04T17:40:27.013Z,54.81
2023-03-04T17:42:55.567Z,54.22
2023-03-04T17:45:23.612Z,54.71
2023-03-04T17:47:52.609Z,53.84
2023-03-04T17:50:21.385Z,54.42
2023-03-04T17:52:49.243Z,54.98
2023-03-04T17:55:17.192Z,54.25
2023-03-04T17:57:45.040Z,54.38
2023-03-04T18:00:13.667Z,53.96
2023-03-04T18:02:41.496Z,53.83
2023-03-04T18:05:11.544Z,53.85
2023-03-04T18:07:39.534Z,54.71
2023-03-04T18:10:07.871Z,54.96
2023-03-04T18:12:35.877Z,54.99
2023-03-04T18:15:04.049Z,55.02
2023-03-04T18:17:32.187Z,54.92
2023-03-04T18:20:01.740Z,54.99
2023-03-04T18:22:31.747Z,54.98
2023-03-04T18:24:59.831Z,55.28
2023-03-04T18:27:28.041Z,54.67
2023-03-04T18:29:56.803Z,54.72
2023-03-04T18:32:25.319Z,54.06
2023-03-04T18:34:54.764Z,54.46
2023-03-04T18:37:22.741Z,54.67
2023-03-04T18:39:50.846Z,55.04
2023-03-04T18:42:18.812Z,55.24
2023-03-04T18:44:46.866Z,54.56
2023-03-04T18:47:14.795Z,54.11
2023-03-04T18:49:45.790Z,53.08
2023-03-04T18:52:14.656Z,53.46
2023-03-04T18:54:42.609Z,53.15
2023-03-04T18:57:13.776Z,52.17
2023-03-04T18:59:49.287Z,53.03
2023-03-04T19:04:36.911Z,53.26
2023-03-04T19:07:04.932Z,52.53
2023-03-04T19:09:32.830Z,52.23
2023-03-04T19:12:03.027Z,53.08
2023-03-04T19:14:31.136Z,52.98
2023-03-04T19:16:59.124Z,53.03
2023-03-04T19:19:27.186Z,53.33
2023-03-04T19:21:55.347Z,53.75
2023-03-04T19:24:24.323Z,52.62
2023-03-04T19:26:53.269Z,52.83
2023-03-04T19:29:21.260Z,53.10
2023-03-04T19:31:49.372Z,53.60
2023-03-04T19:34:18.480Z,53.71
2023-03-04T19:36:46.440Z,53.83
2023-03-04T19:39:15.747Z,53.24
2023-03-04T19:41:44.238Z,53.63
2023-03-04T19:44:12.249Z,53.94
2023-03-04T19:46:40.542Z,53.94
2023-03-04T19:49:10.252Z,54.04
2023-03-04T19:51:38.418Z,54.32
2023-03-04T19:54:06.449Z,54.14
2023-03-04T19:56:34.387Z,53.53
2023-03-04T19:59:02.590Z,54.01
2023-03-04T20:01:33.482Z,54.35
2023-03-04T20:04:06.324Z,54.46
2023-03-04T20:06:40.225Z,54.65
2023-03-04T20:09:08.469Z,55.02
2023-03-04T20:11:44.206Z,55.40
2023-03-04T20:14:16.219Z,55.54
2023-03-04T20:16:44.171Z,55.83
2023-03-04T20:19:12.294Z,56.01
2023-03-04T20:21:40.487Z,56.07
2023-03-04T20:24:08.600Z,56.20
2023-03-04T20:26:39.508Z,56.32
2023-03-04T20:29:07.832Z,56.62
2023-03-04T20:31:39.392Z,56.68
2023-03-04T20:34:08.768Z,56.92
2023-03-04T20:36:38.645Z,56.97
2023-03-04T20:39:26.890Z,57.10
2023-03-04T20:41:59.404Z,57.29
2023-03-04T20:44:28.347Z,57.45
2023-03-04T20:46:56.779Z,57.45
2023-03-04T20:49:27.333Z,57.59
2023-03-04T20:52:00.690Z,57.94
2023-03-04T20:54:30.621Z,58.01
2023-03-04T20:56:59.868Z,58.18
2023-03-04T20:59:28.137Z,58.38
2023-03-04T21:01:56.502Z,58.56
2023-03-04T21:04:24.709Z,58.71
2023-03-04T21:06:53.661Z,58.90
2023-03-04T21:09:23.060Z,59.06
2023-03-04T21:11:51.559Z,59.17
2023-03-04T21:14:23.105Z,59.36
2023-03-04T21:16:54.512Z,59.54
2023-03-04T21:19:25.818Z,59.76
2023-03-04T21:21:55.344Z,59.80
2023-03-04T21:24:26.370Z,59.90
2023-03-04T21:26:54.246Z,60.05
2023-03-04T21:29:24.820Z,60.15
2023-03-04T21:32:09.685Z,60.40
2023-03-04T21:34:49.292Z,60.54
2023-03-04T21:37:17.793Z,60.55
2023-03-04T21:42:18.756Z,60.94
2023-03-04T21:44:50.149Z,61.09
2023-03-04T21:47:20.798Z,61.13
2023-03-04T21:49:49.030Z,61.25
2023-03-04T21:52:18.612Z,61.46
2023-03-04T21:54:47.735Z,61.53
2023-03-04T21:57:15.971Z,61.71
2023-03-04T21:59:44.366Z,61.88
2023-03-04T22:02:18.075Z,62.05
2023-03-04T22:05:06.422Z,62.17
2023-03-04T22:07:34.828Z,62.43
2023-03-04T22:10:07.223Z,62.79
2023-03-04T22:12:35.242Z,62.98
2023-03-04T22:15:03.325Z,63.31
2023-03-04T22:17:33.781Z,63.42
2023-03-04T22:20:02.715Z,63.46
2023-03-04T22:22:31.119Z,63.67
2023-03-04T22:25:00.277Z,63.85
2023-03-04T22:27:28.197Z,64.03
2023-03-04T22:29:56.181Z,64.11
2023-03-04T22:32:24.193Z,64.15
2023-03-04T22:34:52.170Z,64.23
2023-03-04T22:37:20.054Z,64.25
2023-03-04T22:39:48.824Z,64.21
2023-03-04T22:42:16.637Z,64.26
2023-03-04T22:44:45.050Z,64.37
2023-03-04T22:47:13.125Z,64.52
2023-03-04T22:49:41.646Z,64.82
2023-03-04T22:52:09.611Z,64.92
2023-03-04T22:54:37.469Z,64.95
2023-03-04T22:57:05.479Z,65.00
2023-03-04T22:59:33.424Z,65.05
2023-03-04T23:02:01.677Z,65.05
2023-03-04T23:04:30.119Z,65.18
2023-03-04T23:06:58.232Z,65.33
2023-03-04T23:09:26.289Z,65.56
2023-03-04T23:11:55.615Z,65.75
2023-03-04T23:14:23.589Z,65.94
2023-03-04T23:16:51.695Z,66.05
2023-03-04T23:19:19.697Z,66.15
2023-03-04T23:21:47.781Z,66.36
2023-03-04T23:24:15.769Z,66.61
2023-03-04T23:26:43.899Z,66.80
2023-03-04T23:29:15.102Z,66.95
2023-03-04T23:31:44.319Z,67.19
2023-03-04T23:34:13.783Z,67.26
2023-03-04T23:36:42.324Z,67.37
2023-03-04T23:39:12.832Z,67.47
2023-03-04T23:41:40.911Z,67.53
2023-03-04T23:44:12.567Z,67.55
2023-03-04T23:46:41.268Z,67.47
2023-03-04T23:49:13.153Z,67.37
2023-03-04T23:51:41.259Z,67.37
2023-03-04T23:54:09.291Z,67.16
2023-03-04T23:56:37.269Z,67.27
2023-03-04T23:59:07.676Z,67.31
